Accueil
METAR-TAF:

METAR-TAF

Aéroports :

Nancy, France

Base aérienne 133 Nancy-Ochey

latitude: 48-35N, longitude: 005-58E, altitude: 336 m

Observation

Le bulletin a été fait il y a 31 minutes, à 03:00 UTC
Vent 6 kt de sud-est
Température 12°C
Humidité 82%
Pression 1013 hPa
Visibilité 10 km ou plus
pas de nuages en-dessous de 1500 mètres et pas de cumulonimbus.

METAR: LFSO 190300Z AUTO 14006KT CAVOK 12/09 Q1013

Heure: 05:31 (03:31 UTC)

Prévision

Le bulletin a été fait il y a 13 heures et 31 minutes, à 14:00 UTC
Prévision valable du 18 à 15 UTC au 19 à 15 UTC
Vent 8 kt de sud/sud-ouest
Visibilité 10 km ou plus
pas de nuages en-dessous de 1500 mètres et pas de cumulonimbus.
Evoluant progressivement
du 19 à 06 UTC au 19 à 09 UTC
Vent 10 kt de sud/sud-ouest avec des rafales jusqu'à 20 kt

TAF: LFSO 181400Z 1815/1915 20008KT CAVOK BECMG 1906/1909 20010G20KT

Observations et prévisions météorologiques de plus de 4000 aéroports (messages METAR et TAF).

Les stations disponibles sont représentées par des disques jaunes et rouges sur la carte.

Passer la souris dessus pour voir le nom de la station.

Cliquer dessus pour voir les observations et prévisions météorologiques.

Pour changer de carte: cliquez sur les boutons verts avec une croix noire pour zoomer, sur le bouton vert avec un tiret pour effectuer un zoom arrière, ou sur les flèches vertes pour les cartes adjacentes.


METAR-TAF: